createdAt,value
2019-03-11T00:00:01.078Z,15
2019-03-11T00:02:01.103Z,13
2019-03-11T00:03:01.077Z,14
2019-03-11T00:04:01.076Z,15
2019-03-11T00:05:01.082Z,17
2019-03-11T00:06:01.099Z,19
2019-03-11T00:07:01.110Z,20
2019-03-11T00:08:01.077Z,19
2019-03-11T00:09:01.078Z,17
2019-03-11T00:10:01.082Z,15
2019-03-11T00:11:01.077Z,12
2019-03-11T00:13:01.105Z,15
2019-03-11T00:14:01.079Z,16
2019-03-11T00:15:01.080Z,17
2019-03-11T00:16:01.079Z,19
2019-03-11T00:17:01.121Z,18
2019-03-11T00:19:01.079Z,19
2019-03-11T00:20:01.080Z,18
2019-03-11T00:22:01.081Z,17
2019-03-11T00:23:01.081Z,16
2019-03-11T00:26:01.083Z,17
2019-03-11T00:27:01.087Z,18
2019-03-11T00:28:01.117Z,17
2019-03-11T00:29:01.085Z,16
2019-03-11T00:30:01.107Z,17
2019-03-11T00:31:01.092Z,16
2019-03-11T00:32:01.086Z,18
2019-03-11T00:33:01.083Z,17
2019-03-11T00:34:01.110Z,15
2019-03-11T00:35:01.086Z,14
2019-03-11T00:36:01.084Z,15
2019-03-11T00:37:01.101Z,13
2019-03-11T00:38:01.086Z,12
2019-03-11T00:39:01.894Z,13
2019-03-11T00:42:01.087Z,12
2019-03-11T00:43:01.086Z,15
2019-03-11T00:44:01.111Z,17
2019-03-11T00:45:01.090Z,17
2019-03-11T00:47:01.089Z,19
2019-03-11T00:48:02.583Z,17
2019-03-11T00:51:01.087Z,15
2019-03-11T00:52:01.086Z,14
2019-03-11T00:53:01.089Z,16
2019-03-11T00:54:01.114Z,17
2019-03-11T00:55:01.092Z,18
2019-03-11T00:56:01.089Z,20
2019-03-11T00:57:01.091Z,19
2019-03-11T00:58:01.090Z,17
2019-03-11T00:59:01.117Z,15
2019-03-11T01:00:01.090Z,16
2019-03-11T01:01:01.091Z,17
2019-03-11T01:02:01.091Z,19
2019-03-11T01:03:01.119Z,18
2019-03-11T01:06:01.090Z,17
2019-03-11T01:07:01.093Z,19
2019-03-11T01:08:01.126Z,18
2019-03-11T01:11:01.091Z,17
2019-03-11T01:12:01.094Z,14
2019-03-11T01:13:01.116Z,16
2019-03-11T01:14:01.089Z,15
2019-03-11T01:15:01.090Z,14
2019-03-11T01:16:01.090Z,13
2019-03-11T01:17:01.093Z,15
2019-03-11T01:19:01.115Z,14
2019-03-11T01:20:01.089Z,16
2019-03-11T01:24:01.117Z,18
2019-03-11T01:25:01.094Z,16
2019-03-11T01:26:01.090Z,17
2019-03-11T01:27:01.090Z,16
2019-03-11T01:29:01.116Z,15
2019-03-11T01:30:01.089Z,18
2019-03-11T01:32:01.090Z,17
2019-03-11T01:33:01.113Z,18
2019-03-11T01:34:01.088Z,20
2019-03-11T01:35:01.088Z,17
2019-03-11T01:37:01.115Z,19
2019-03-11T01:38:01.086Z,18
2019-03-11T01:39:01.097Z,17
2019-03-11T01:40:01.085Z,16
2019-03-11T01:41:01.088Z,17
2019-03-11T01:43:01.087Z,16
2019-03-11T01:44:01.104Z,15
2019-03-11T01:45:01.087Z,16
2019-03-11T01:46:01.088Z,15
2019-03-11T01:47:01.112Z,14
2019-03-11T01:48:01.088Z,16
2019-03-11T01:49:01.091Z,18
2019-03-11T01:50:01.091Z,17
2019-03-11T01:51:01.087Z,18
2019-03-11T01:53:01.112Z,19
2019-03-11T01:54:01.087Z,18
2019-03-11T01:55:01.095Z,19
2019-03-11T01:57:01.123Z,18
2019-03-11T01:58:01.089Z,17
2019-03-11T01:59:01.087Z,18
2019-03-11T02:00:01.089Z,20
2019-03-11T02:01:01.087Z,19
2019-03-11T02:02:01.121Z,18
2019-03-11T02:04:01.087Z,17
2019-03-11T02:05:01.090Z,15
2019-03-11T02:06:01.089Z,16
2019-03-11T02:07:01.121Z,15
2019-03-11T02:08:01.088Z,14
2019-03-11T02:09:01.087Z,12
2019-03-11T02:10:01.095Z,11
2019-03-11T02:11:01.530Z,13
2019-03-11T02:12:01.114Z,14
2019-03-11T02:13:01.089Z,16
2019-03-11T02:14:01.091Z,17
2019-03-11T02:15:01.092Z,18
2019-03-11T02:16:01.093Z,17
2019-03-11T02:17:01.115Z,18
2019-03-11T02:18:01.088Z,19
2019-03-11T02:20:01.089Z,18
2019-03-11T02:21:01.117Z,19
2019-03-11T02:22:01.088Z,16
2019-03-11T02:23:01.088Z,15
2019-03-11T02:25:01.090Z,14
2019-03-11T02:26:01.131Z,15
2019-03-11T02:27:01.090Z,17
2019-03-11T02:28:01.089Z,16
2019-03-11T02:29:01.092Z,17
2019-03-11T02:30:01.097Z,19
2019-03-11T02:32:01.119Z,17
2019-03-11T02:34:01.093Z,15
2019-03-11T02:37:01.117Z,17
2019-03-11T02:38:01.059Z,16
2019-03-11T02:39:01.092Z,18
2019-03-11T02:42:01.085Z,17
2019-03-11T02:45:01.113Z,15
2019-03-11T02:46:01.104Z,14
2019-03-11T02:47:01.098Z,15
2019-03-11T02:48:01.094Z,16
2019-03-11T02:49:01.107Z,15
2019-03-11T02:51:01.126Z,16
2019-03-11T02:52:01.121Z,17
2019-03-11T02:54:01.084Z,16
2019-03-11T02:55:01.082Z,18
2019-03-11T02:56:01.053Z,17
2019-03-11T02:58:01.109Z,16
2019-03-11T03:00:01.053Z,18
2019-03-11T03:01:01.084Z,20
2019-03-11T03:02:01.077Z,18
2019-03-11T03:04:01.050Z,17
2019-03-11T03:07:01.110Z,18
2019-03-11T03:08:01.085Z,19
2019-03-11T03:10:01.114Z,18
2019-03-11T03:11:01.086Z,17
2019-03-11T03:13:01.087Z,16
2019-03-11T03:14:01.084Z,17
2019-03-11T03:15:01.125Z,16
2019-03-11T03:16:01.090Z,17
2019-03-11T03:17:01.055Z,16
2019-03-11T03:19:01.057Z,15
2019-03-11T03:22:01.112Z,17
2019-03-11T03:24:01.116Z,18
2019-03-11T03:27:01.092Z,17
2019-03-11T03:28:01.222Z,18
2019-03-11T03:30:01.090Z,16
2019-03-11T03:31:01.057Z,17
2019-03-11T03:32:01.089Z,18
2019-03-11T03:33:01.090Z,17
2019-03-11T03:35:01.097Z,19
2019-03-11T03:36:01.091Z,17
2019-03-11T03:37:01.058Z,16
2019-03-11T03:39:01.119Z,17
2019-03-11T03:40:01.141Z,16
2019-03-11T03:42:01.062Z,17
2019-03-11T03:43:01.206Z,15
2019-03-11T03:44:01.122Z,14
2019-03-11T03:45:01.096Z,15
2019-03-11T03:46:01.123Z,16
2019-03-11T03:47:01.076Z,14
2019-03-11T03:49:01.089Z,15
2019-03-11T03:50:01.091Z,17
2019-03-11T03:55:01.095Z,15
2019-03-11T03:57:01.093Z,16
2019-03-11T03:58:01.123Z,17
2019-03-11T04:00:01.097Z,17
2019-03-11T04:01:01.064Z,18
2019-03-11T04:03:01.085Z,17
2019-03-11T04:04:01.110Z,16
2019-03-11T04:06:01.094Z,15
2019-03-11T04:07:01.100Z,16
2019-03-11T04:12:01.100Z,15
2019-03-11T04:15:01.097Z,15
2019-03-11T04:18:01.072Z,14
2019-03-11T04:19:01.080Z,16
2019-03-11T04:20:01.050Z,17
2019-03-11T04:24:01.107Z,18
2019-03-11T04:26:01.084Z,20
2019-03-11T04:27:01.105Z,18
2019-03-11T04:28:01.082Z,20
2019-03-11T04:29:01.083Z,19
2019-03-11T04:30:01.053Z,18
2019-03-11T04:31:01.052Z,17
2019-03-11T04:32:01.112Z,18
2019-03-11T04:33:01.052Z,17
2019-03-11T04:34:01.088Z,16
2019-03-11T04:35:01.083Z,17
2019-03-11T04:37:01.107Z,16
2019-03-11T04:39:01.086Z,17
2019-03-11T04:40:01.082Z,15
2019-03-11T04:44:01.074Z,16
2019-03-11T04:45:01.085Z,18
2019-03-11T04:46:01.052Z,19
2019-03-11T04:50:01.076Z,16
2019-03-11T04:51:01.083Z,17
2019-03-11T04:52:01.084Z,18
2019-03-11T04:53:01.084Z,20
2019-03-11T04:54:01.083Z,19
2019-03-11T04:55:01.115Z,21
2019-03-11T04:56:01.082Z,20
2019-03-11T04:57:01.082Z,17
2019-03-11T04:58:01.083Z,15
2019-03-11T04:59:01.147Z,16
2019-03-11T05:00:01.133Z,15
2019-03-11T05:01:01.084Z,16
2019-03-11T05:04:01.090Z,14
2019-03-11T05:05:01.083Z,15
2019-03-11T05:06:01.208Z,14
2019-03-11T05:07:01.086Z,15
2019-03-11T05:08:01.148Z,16
2019-03-11T05:09:01.084Z,17
2019-03-11T05:10:01.084Z,16
2019-03-11T05:12:01.150Z,19
2019-03-11T05:13:01.086Z,18
2019-03-11T05:15:01.097Z,19
2019-03-11T05:17:01.085Z,16
2019-03-11T05:20:01.056Z,15
2019-03-11T05:21:01.055Z,16
2019-03-11T05:22:01.087Z,17
2019-03-11T05:23:01.088Z,19
2019-03-11T05:25:01.088Z,18
2019-03-11T05:26:01.088Z,19
2019-03-11T05:27:01.090Z,18
2019-03-11T05:28:01.061Z,15
2019-03-11T05:29:01.156Z,16
2019-03-11T05:30:02.338Z,17
2019-03-11T05:31:01.094Z,15
2019-03-11T05:34:01.060Z,17
2019-03-11T05:35:02.338Z,18
2019-03-11T05:36:01.093Z,19
2019-03-11T05:38:01.101Z,18
2019-03-11T05:39:01.123Z,15
2019-03-11T05:40:01.065Z,12
2019-03-11T05:42:01.061Z,11
2019-03-11T05:43:01.100Z,13
2019-03-11T05:45:01.096Z,15
2019-03-11T05:48:01.069Z,16
2019-03-11T05:51:01.120Z,17
2019-03-11T05:56:01.079Z,19
2019-03-11T05:57:01.081Z,18
2019-03-11T05:58:01.079Z,20
2019-03-11T06:00:01.072Z,20
2019-03-11T06:01:01.048Z,19
2019-03-11T06:02:01.048Z,21
2019-03-11T06:03:01.149Z,19
2019-03-11T06:04:01.080Z,18
2019-03-11T06:06:01.081Z,16
2019-03-11T06:07:01.108Z,14
2019-03-11T06:08:01.053Z,15
2019-03-11T06:09:01.082Z,16
2019-03-11T06:11:01.049Z,17
2019-03-11T06:13:01.051Z,16
2019-03-11T06:14:06.080Z,15
2019-03-11T06:15:01.087Z,15
2019-03-11T06:16:01.084Z,17
2019-03-11T06:19:01.097Z,18
2019-03-11T06:21:01.083Z,17
2019-03-11T06:23:01.084Z,18
2019-03-11T06:25:01.087Z,19
2019-03-11T06:26:01.088Z,20
2019-03-11T06:27:01.818Z,19
2019-03-11T06:29:01.087Z,17
2019-03-11T06:30:01.086Z,19
2019-03-11T06:31:01.098Z,16
2019-03-11T06:32:01.055Z,17
2019-03-11T06:35:01.086Z,15
2019-03-11T06:36:01.090Z,16
2019-03-11T06:38:01.087Z,15
2019-03-11T06:40:01.055Z,14
2019-03-11T06:41:01.091Z,13
2019-03-11T06:42:01.054Z,14
2019-03-11T06:43:01.086Z,15
2019-03-11T06:45:01.089Z,16
2019-03-11T06:46:01.087Z,17
2019-03-11T06:47:01.086Z,16
2019-03-11T06:48:01.088Z,17
2019-03-11T06:50:01.088Z,16
2019-03-11T06:51:01.088Z,17
2019-03-11T06:52:03.466Z,19
2019-03-11T06:53:01.055Z,16
2019-03-11T06:54:01.056Z,15
2019-03-11T06:55:01.093Z,17
2019-03-11T06:56:01.089Z,15
2019-03-11T06:57:01.059Z,16
2019-03-11T06:58:01.095Z,17
2019-03-11T07:00:01.101Z,16
2019-03-11T07:02:01.090Z,15
2019-03-11T07:04:01.089Z,16
2019-03-11T07:05:02.360Z,17
2019-03-11T07:07:01.093Z,16
2019-03-11T07:08:01.091Z,17
2019-03-11T07:10:01.058Z,16
2019-03-11T07:13:01.092Z,15
2019-03-11T07:14:01.120Z,13
2019-03-11T07:15:01.095Z,15
2019-03-11T07:16:01.091Z,14
2019-03-11T07:17:01.091Z,15
2019-03-11T07:18:06.094Z,16
2019-03-11T07:21:01.097Z,15
2019-03-11T07:25:01.095Z,14
2019-03-11T07:26:01.065Z,15
2019-03-11T07:27:01.159Z,14
2019-03-11T07:28:01.098Z,16
2019-03-11T07:29:01.114Z,18
2019-03-11T07:30:01.095Z,18
2019-03-11T07:31:01.093Z,20
2019-03-11T07:32:01.115Z,19
2019-03-11T07:33:01.060Z,17
2019-03-11T07:34:01.060Z,15
2019-03-11T07:36:01.093Z,13
2019-03-11T07:37:01.123Z,14
2019-03-11T07:38:01.159Z,15
2019-03-11T07:39:01.156Z,14
2019-03-11T07:40:01.099Z,17
2019-03-11T07:42:01.118Z,16
2019-03-11T07:43:01.096Z,15
2019-03-11T07:44:01.094Z,16
2019-03-11T07:45:01.096Z,15
2019-03-11T07:46:06.064Z,14
2019-03-11T07:47:01.124Z,16
2019-03-11T07:50:01.105Z,17
2019-03-11T07:51:02.082Z,19
2019-03-11T07:52:02.624Z,21
2019-03-11T07:54:01.105Z,22
2019-03-11T07:55:01.095Z,23
2019-03-11T07:56:01.094Z,22
2019-03-11T07:57:01.088Z,20
2019-03-11T07:59:01.102Z,17
2019-03-11T08:00:01.099Z,13
2019-03-11T08:01:01.252Z,12
2019-03-11T08:04:01.110Z,15
2019-03-11T08:06:01.050Z,17
2019-03-11T08:07:01.084Z,16
2019-03-11T08:08:01.222Z,17
2019-03-11T08:10:01.083Z,16
2019-03-11T08:11:01.083Z,14
2019-03-11T08:12:02.081Z,16
2019-03-11T08:13:01.086Z,15
2019-03-11T08:15:01.081Z,15
2019-03-11T08:21:01.104Z,14
2019-03-11T08:22:01.088Z,15
2019-03-11T08:25:01.089Z,17
2019-03-11T08:26:01.083Z,20
2019-03-11T08:27:01.084Z,22
2019-03-11T08:28:01.084Z,24
2019-03-11T08:29:01.088Z,23
2019-03-11T08:30:01.053Z,23
2019-03-11T08:31:01.054Z,21
2019-03-11T08:32:01.085Z,18
2019-03-11T08:33:01.054Z,17
2019-03-11T08:34:01.111Z,16
2019-03-11T08:36:01.094Z,14
2019-03-11T08:37:01.086Z,16
2019-03-11T08:38:04.763Z,17
2019-03-11T08:40:01.057Z,18
2019-03-11T08:41:01.087Z,20
2019-03-11T08:42:01.089Z,18
2019-03-11T08:43:01.088Z,17
2019-03-11T08:44:01.056Z,16
2019-03-11T08:45:01.113Z,15
2019-03-11T08:46:01.092Z,13
2019-03-11T08:47:01.057Z,14
2019-03-11T08:48:01.057Z,16
2019-03-11T08:49:02.230Z,17
2019-03-11T08:51:01.091Z,18
2019-03-11T08:53:01.091Z,17
2019-03-11T08:56:01.089Z,16
2019-03-11T08:57:01.154Z,17
2019-03-11T08:58:01.090Z,20
2019-03-11T09:00:01.274Z,22
2019-03-11T09:01:01.091Z,21
2019-03-11T09:03:01.059Z,20
2019-03-11T09:04:01.090Z,18
2019-03-11T09:05:01.129Z,17
2019-03-11T09:06:01.058Z,18
2019-03-11T09:08:01.092Z,17
2019-03-11T09:09:01.097Z,19
2019-03-11T09:10:01.153Z,18
2019-03-11T09:11:01.059Z,16
2019-03-11T09:12:01.092Z,15
2019-03-11T09:13:01.058Z,18
2019-03-11T09:15:01.115Z,19
2019-03-11T09:16:01.092Z,21
2019-03-11T09:17:01.090Z,22
2019-03-11T09:18:01.090Z,20
2019-03-11T09:21:01.094Z,19
2019-03-11T09:22:01.092Z,16
2019-03-11T09:24:01.091Z,14
2019-03-11T09:25:01.094Z,13
2019-03-11T09:26:02.081Z,14
2019-03-11T09:27:01.092Z,16
2019-03-11T09:28:01.092Z,17
2019-03-11T09:29:01.096Z,18
2019-03-11T09:30:01.122Z,18
2019-03-11T09:32:01.060Z,17
2019-03-11T09:33:01.094Z,16
2019-03-11T09:36:01.118Z,15
2019-03-11T09:37:01.093Z,16
2019-03-11T09:38:03.613Z,15
2019-03-11T09:39:01.086Z,14
2019-03-11T09:41:01.093Z,13
2019-03-11T09:42:01.092Z,15
2019-03-11T09:44:01.085Z,17
2019-03-11T09:45:06.095Z,18
2019-03-11T09:46:01.061Z,20
2019-03-11T09:47:01.117Z,19
2019-03-11T09:48:01.106Z,20
2019-03-11T09:49:01.085Z,18
2019-03-11T09:50:01.094Z,16
2019-03-11T09:51:01.062Z,15
2019-03-11T09:52:01.094Z,16
2019-03-11T09:54:01.118Z,17
2019-03-11T09:55:01.062Z,19
2019-03-11T09:58:01.078Z,18
2019-03-11T09:59:01.127Z,19
2019-03-11T10:00:01.082Z,18
2019-03-11T10:01:01.046Z,16
2019-03-11T10:04:01.080Z,15
2019-03-11T10:05:01.144Z,16
2019-03-11T10:06:01.082Z,15
2019-03-11T10:07:01.083Z,16
2019-03-11T10:08:01.160Z,17
2019-03-11T10:09:01.728Z,18
2019-03-11T10:10:01.087Z,19
2019-03-11T10:11:01.082Z,21
2019-03-11T10:12:01.101Z,18
2019-03-11T10:14:01.083Z,17
2019-03-11T10:15:01.087Z,14
2019-03-11T10:16:01.083Z,13
2019-03-11T10:17:01.055Z,14
2019-03-11T10:18:01.107Z,15
2019-03-11T10:19:01.085Z,14
2019-03-11T10:20:01.056Z,15
2019-03-11T10:21:01.085Z,16
2019-03-11T10:24:01.054Z,17
2019-03-11T10:25:01.090Z,16
2019-03-11T10:26:01.057Z,15
2019-03-11T10:28:01.118Z,14
2019-03-11T10:29:01.091Z,15
2019-03-11T10:30:01.092Z,16
2019-03-11T10:31:01.060Z,17
2019-03-11T10:32:01.091Z,16
2019-03-11T10:34:01.090Z,15
2019-03-11T10:35:01.095Z,16
2019-03-11T10:36:01.094Z,14
2019-03-11T10:39:01.094Z,13
2019-03-11T10:40:01.062Z,14
2019-03-11T10:41:01.093Z,15
2019-03-11T10:42:01.118Z,17
2019-03-11T10:43:01.096Z,18
2019-03-11T10:44:01.099Z,17
2019-03-11T10:45:01.093Z,17
2019-03-11T10:46:01.091Z,16
2019-03-11T10:47:01.115Z,14
2019-03-11T10:51:01.133Z,15
2019-03-11T10:52:01.117Z,14
2019-03-11T10:53:01.094Z,15
2019-03-11T10:54:01.683Z,17
2019-03-11T10:56:01.117Z,18
2019-03-11T11:00:01.113Z,18
2019-03-11T11:01:01.120Z,17
2019-03-11T11:02:01.097Z,18
2019-03-11T11:03:01.096Z,16
2019-03-11T11:04:01.099Z,17
2019-03-11T11:06:01.093Z,16
2019-03-11T11:09:01.097Z,15
2019-03-11T11:11:01.122Z,16
2019-03-11T11:12:01.099Z,17
2019-03-11T11:14:01.083Z,18
2019-03-11T11:15:01.100Z,18
2019-03-11T11:17:01.075Z,19
2019-03-11T11:18:01.087Z,17
2019-03-11T11:19:01.081Z,16
2019-03-11T11:21:01.114Z,15
2019-03-11T11:22:01.082Z,14
2019-03-11T11:25:01.089Z,16
2019-03-11T11:26:02.005Z,18
2019-03-11T11:29:01.086Z,17
2019-03-11T11:30:01.084Z,17
2019-03-11T11:31:01.077Z,16
2019-03-11T11:33:01.084Z,17
2019-03-11T11:35:01.094Z,16
2019-03-11T11:36:01.119Z,17
2019-03-11T11:39:01.086Z,16
2019-03-11T11:40:01.088Z,17
2019-03-11T11:41:01.113Z,16
2019-03-11T11:43:01.086Z,14
2019-03-11T11:44:01.086Z,15
2019-03-11T11:45:01.092Z,15
2019-03-11T11:46:01.110Z,16
2019-03-11T11:48:01.086Z,17
2019-03-11T11:49:01.053Z,16
2019-03-11T11:52:01.119Z,15
2019-03-11T11:54:01.091Z,14
2019-03-11T11:55:01.086Z,15
2019-03-11T11:57:01.095Z,17
2019-03-11T11:58:01.082Z,18
2019-03-11T12:00:01.137Z,19
2019-03-11T12:01:01.095Z,18
2019-03-11T12:02:03.965Z,17
2019-03-11T12:03:01.114Z,15
2019-03-11T12:04:01.101Z,17
2019-03-11T12:06:01.705Z,19
2019-03-11T12:07:01.058Z,20
2019-03-11T12:08:01.088Z,22
2019-03-11T12:09:01.097Z,21
2019-03-11T12:11:01.094Z,19
2019-03-11T12:13:01.125Z,17
2019-03-11T12:14:01.094Z,19
2019-03-11T12:15:01.097Z,18
2019-03-11T12:16:01.091Z,19
2019-03-11T12:18:01.122Z,20
2019-03-11T12:19:01.091Z,19
2019-03-11T12:20:01.092Z,20
2019-03-11T12:21:01.060Z,21
2019-03-11T12:22:01.091Z,20
2019-03-11T12:23:01.119Z,19
2019-03-11T12:26:01.091Z,18
2019-03-11T12:27:01.059Z,15
2019-03-11T12:28:01.130Z,16
2019-03-11T12:30:01.100Z,14
2019-03-11T12:32:01.093Z,18
2019-03-11T12:33:01.095Z,15
2019-03-11T12:36:01.096Z,16
2019-03-11T12:37:02.218Z,15
2019-03-11T12:38:01.129Z,16
2019-03-11T12:39:01.095Z,19
2019-03-11T12:43:01.125Z,18
2019-03-11T12:44:01.094Z,16
2019-03-11T12:45:01.097Z,16
2019-03-11T12:47:01.096Z,17
2019-03-11T12:48:01.129Z,18
2019-03-11T12:49:01.062Z,17
2019-03-11T12:50:01.097Z,18
2019-03-11T12:51:01.096Z,16
2019-03-11T12:52:01.099Z,15
2019-03-11T12:55:01.096Z,13
2019-03-11T12:56:01.097Z,15
2019-03-11T12:57:01.096Z,18
2019-03-11T12:59:01.100Z,17
2019-03-11T13:00:02.798Z,18
2019-03-11T13:01:03.395Z,15
2019-03-11T13:02:01.097Z,12
2019-03-11T13:05:01.115Z,14
2019-03-11T13:06:01.082Z,15
2019-03-11T13:07:01.087Z,17
2019-03-11T13:08:01.051Z,18
2019-03-11T13:09:01.081Z,19
2019-03-11T13:10:01.055Z,20
2019-03-11T13:11:01.082Z,19
2019-03-11T13:12:01.085Z,18
2019-03-11T13:13:01.098Z,17
2019-03-11T13:14:01.084Z,16
2019-03-11T13:15:01.086Z,15
2019-03-11T13:16:01.083Z,16
2019-03-11T13:18:01.086Z,18
2019-03-11T13:20:01.053Z,17
2019-03-11T13:21:01.084Z,16
2019-03-11T13:23:01.086Z,17
2019-03-11T13:24:01.076Z,18
2019-03-11T13:26:01.122Z,17
2019-03-11T13:27:01.051Z,15
2019-03-11T13:28:01.083Z,13
2019-03-11T13:29:01.074Z,12
2019-03-11T13:30:01.969Z,12
2019-03-11T13:31:01.083Z,11
2019-03-11T13:32:01.086Z,12
2019-03-11T13:33:01.088Z,13
2019-03-11T13:34:01.125Z,15
2019-03-11T13:35:01.086Z,16
2019-03-11T13:38:01.083Z,17
2019-03-11T13:39:01.084Z,15
2019-03-11T13:40:06.082Z,16
2019-03-11T13:42:01.052Z,18
2019-03-11T13:43:01.084Z,17
2019-03-11T13:44:01.084Z,18
2019-03-11T13:45:01.087Z,18
2019-03-11T13:47:01.091Z,17
2019-03-11T13:48:01.083Z,18
2019-03-11T13:52:01.065Z,17
2019-03-11T13:55:09.930Z,16
2019-03-11T13:57:01.094Z,17
2019-03-11T13:58:01.088Z,16
2019-03-11T13:59:01.089Z,14
2019-03-11T14:00:02.120Z,13
2019-03-11T14:01:01.306Z,14
2019-03-11T14:02:01.064Z,13
2019-03-11T14:03:01.092Z,16
2019-03-11T14:04:01.092Z,17
2019-03-11T14:05:01.094Z,19
2019-03-11T14:09:01.064Z,18
2019-03-11T14:12:02.084Z,17
2019-03-11T14:13:01.092Z,16
2019-03-11T14:14:01.096Z,15
2019-03-11T14:15:01.095Z,14
2019-03-11T14:16:01.116Z,15
2019-03-11T14:20:01.064Z,16
2019-03-11T14:21:01.116Z,15
2019-03-11T14:22:01.092Z,16
2019-03-11T14:24:01.126Z,17
2019-03-11T14:26:01.105Z,16
2019-03-11T14:29:01.125Z,14
2019-03-11T14:30:01.064Z,14
2019-03-11T14:31:01.100Z,16
2019-03-11T14:34:01.135Z,15
2019-03-11T14:36:01.064Z,13
2019-03-11T14:39:01.077Z,15
2019-03-11T14:40:01.078Z,14
2019-03-11T14:41:01.081Z,15
2019-03-11T14:44:01.080Z,14
2019-03-11T14:45:01.077Z,14
2019-03-11T14:47:01.076Z,16
2019-03-11T14:50:01.050Z,18
2019-03-11T14:51:01.045Z,17
2019-03-11T14:52:01.084Z,15
2019-03-11T14:53:02.150Z,14
2019-03-11T14:54:01.078Z,15
2019-03-11T14:56:01.054Z,16
2019-03-11T14:57:01.083Z,17
2019-03-11T14:58:01.261Z,18
2019-03-11T14:59:01.046Z,19
2019-03-11T15:00:01.107Z,17
2019-03-11T15:02:01.079Z,15
2019-03-11T15:03:01.079Z,16
2019-03-11T15:04:01.047Z,15
2019-03-11T15:05:01.049Z,17
2019-03-11T15:07:01.145Z,18
2019-03-11T15:09:01.048Z,20
2019-03-11T15:10:01.101Z,18
2019-03-11T15:12:01.078Z,19
2019-03-11T15:13:01.082Z,18
2019-03-11T15:14:01.083Z,17
2019-03-11T15:15:01.078Z,18
2019-03-11T15:16:01.082Z,19
2019-03-11T15:20:01.050Z,16
2019-03-11T15:21:01.049Z,15
2019-03-11T15:22:01.084Z,14
2019-03-11T15:24:01.048Z,13
2019-03-11T15:25:01.083Z,15
2019-03-11T15:27:01.149Z,16
2019-03-11T15:28:01.082Z,17
2019-03-11T15:29:01.051Z,19
2019-03-11T15:30:01.087Z,20
2019-03-11T15:31:10.022Z,21
2019-03-11T15:32:01.085Z,20
2019-03-11T15:33:01.084Z,19
2019-03-11T15:34:01.085Z,18
2019-03-11T15:35:01.057Z,15
2019-03-11T15:39:06.087Z,14
2019-03-11T15:40:01.091Z,16
2019-03-11T15:43:01.087Z,15
2019-03-11T15:44:01.109Z,17
2019-03-11T15:45:01.052Z,16
2019-03-11T15:47:01.050Z,17
2019-03-11T15:48:01.689Z,18
2019-03-11T15:50:01.089Z,20
2019-03-11T15:53:01.086Z,21
2019-03-11T15:54:01.089Z,18
2019-03-11T15:55:01.089Z,17
2019-03-11T15:56:01.090Z,18
2019-03-11T15:57:01.087Z,16
2019-03-11T15:58:01.088Z,14
2019-03-11T15:59:01.088Z,15
2019-03-11T16:00:01.057Z,17
2019-03-11T16:01:01.092Z,18
2019-03-11T16:02:01.089Z,20
2019-03-11T16:03:01.090Z,21
2019-03-11T16:04:01.088Z,22
2019-03-11T16:05:01.101Z,20
2019-03-11T16:06:01.094Z,18
2019-03-11T16:07:01.097Z,17
2019-03-11T16:09:02.069Z,18
2019-03-11T16:10:01.090Z,17
2019-03-11T16:11:01.154Z,20
2019-03-11T16:12:01.095Z,21
2019-03-11T16:13:01.093Z,19
2019-03-11T16:14:01.340Z,20
2019-03-11T16:15:01.108Z,21
2019-03-11T16:16:01.090Z,18
2019-03-11T16:17:01.191Z,17
2019-03-11T16:18:01.096Z,18
2019-03-11T16:19:01.061Z,17
2019-03-11T16:21:01.116Z,20
2019-03-11T16:23:01.064Z,19
2019-03-11T16:26:01.117Z,17
2019-03-11T16:27:01.099Z,18
2019-03-11T16:30:01.044Z,18
2019-03-11T16:32:01.078Z,17
2019-03-11T16:34:01.077Z,18
2019-03-11T16:36:01.079Z,17
2019-03-11T16:37:01.081Z,19
2019-03-11T16:38:01.077Z,20
2019-03-11T16:42:01.050Z,18
2019-03-11T16:43:01.050Z,16
2019-03-11T16:44:01.079Z,15
2019-03-11T16:45:01.047Z,15
2019-03-11T16:46:04.328Z,16
2019-03-11T16:47:01.079Z,18
2019-03-11T16:50:01.104Z,19
2019-03-11T16:51:01.081Z,17
2019-03-11T16:52:01.078Z,16
2019-03-11T16:53:01.082Z,18
2019-03-11T16:54:01.087Z,17
2019-03-11T16:55:01.075Z,18
2019-03-11T16:56:01.087Z,19
2019-03-11T16:57:01.051Z,20
2019-03-11T16:58:01.083Z,19
2019-03-11T16:59:01.097Z,20
2019-03-11T17:00:01.092Z,18
2019-03-11T17:01:01.087Z,19
2019-03-11T17:02:01.090Z,17
2019-03-11T17:04:06.071Z,19
2019-03-11T17:06:01.086Z,18
2019-03-11T17:07:01.087Z,20
2019-03-11T17:08:01.089Z,19
2019-03-11T17:09:01.092Z,18
2019-03-11T17:10:06.086Z,19
2019-03-11T17:11:01.090Z,21
2019-03-11T17:12:01.058Z,20
2019-03-11T17:13:01.089Z,21
2019-03-11T17:14:01.064Z,19
2019-03-11T17:15:01.054Z,18
2019-03-11T17:16:01.087Z,17
2019-03-11T17:17:01.094Z,15
2019-03-11T17:18:01.098Z,14
2019-03-11T17:19:01.092Z,17
2019-03-11T17:23:01.086Z,16
2019-03-11T17:25:01.087Z,14
2019-03-11T17:27:01.056Z,15
2019-03-11T17:28:01.093Z,17
2019-03-11T17:29:01.087Z,18
2019-03-11T17:30:01.096Z,18
2019-03-11T17:31:02.190Z,17
2019-03-11T17:32:01.094Z,18
2019-03-11T17:33:01.066Z,16
2019-03-11T17:34:01.059Z,14
2019-03-11T17:35:01.102Z,16
2019-03-11T17:36:01.117Z,17
2019-03-11T17:37:01.089Z,18
2019-03-11T17:38:01.089Z,19
2019-03-11T17:40:01.062Z,18
2019-03-11T17:41:01.093Z,17
2019-03-11T17:43:01.208Z,16
2019-03-11T17:45:01.093Z,16
2019-03-11T17:46:01.122Z,18
2019-03-11T17:47:01.070Z,17
2019-03-11T17:48:01.095Z,19
2019-03-11T17:49:01.093Z,20
2019-03-11T17:50:01.092Z,21
2019-03-11T17:51:01.092Z,20
2019-03-11T17:52:02.104Z,22
2019-03-11T17:53:01.096Z,23
2019-03-11T17:54:01.063Z,20
2019-03-11T17:55:01.097Z,18
2019-03-11T17:57:01.092Z,17
2019-03-11T17:58:01.060Z,15
2019-03-11T17:59:01.094Z,16
2019-03-11T18:00:01.062Z,18
2019-03-11T18:01:01.132Z,17
2019-03-11T18:02:01.105Z,15
2019-03-11T18:05:01.076Z,17
2019-03-11T18:06:10.997Z,15
2019-03-11T18:08:01.077Z,16
2019-03-11T18:09:01.265Z,19
2019-03-11T18:10:01.077Z,17
2019-03-11T18:12:01.077Z,18
2019-03-11T18:13:01.080Z,19
2019-03-11T18:14:01.083Z,18
2019-03-11T18:15:01.085Z,19
2019-03-11T18:17:01.081Z,20
2019-03-11T18:18:01.048Z,18
2019-03-11T18:19:01.146Z,17
2019-03-11T18:21:01.128Z,18
2019-03-11T18:22:01.085Z,17
2019-03-11T18:23:01.082Z,18
2019-03-11T18:24:01.082Z,19
2019-03-11T18:25:01.083Z,18
2019-03-11T18:26:01.054Z,15
2019-03-11T18:27:01.083Z,17
2019-03-11T18:29:01.089Z,15
2019-03-11T18:30:01.092Z,14
2019-03-11T18:32:02.011Z,12
2019-03-11T18:33:01.086Z,13
2019-03-11T18:34:01.085Z,15
2019-03-11T18:35:01.093Z,16
2019-03-11T18:36:01.066Z,17
2019-03-11T18:37:01.101Z,18
2019-03-11T18:38:04.338Z,17
2019-03-11T18:39:01.103Z,16
2019-03-11T18:43:01.086Z,15
2019-03-11T18:44:01.087Z,14
2019-03-11T18:45:01.089Z,13
2019-03-11T18:46:01.115Z,12
2019-03-11T18:47:01.053Z,13
2019-03-11T18:50:01.108Z,15
2019-03-11T18:52:01.093Z,16
2019-03-11T18:55:01.088Z,13
2019-03-11T18:57:01.125Z,11
2019-03-11T18:58:01.137Z,13
2019-03-11T18:59:01.092Z,14
2019-03-11T19:00:01.070Z,14
2019-03-11T19:02:01.132Z,16
2019-03-11T19:04:01.100Z,15
2019-03-11T19:05:01.110Z,16
2019-03-11T19:06:01.137Z,19
2019-03-11T19:07:01.093Z,18
2019-03-11T19:08:01.088Z,19
2019-03-11T19:09:01.076Z,22
2019-03-11T19:10:01.092Z,21
2019-03-11T19:11:01.140Z,19
2019-03-11T19:13:01.117Z,17
2019-03-11T19:14:01.123Z,15
2019-03-11T19:15:01.172Z,17
2019-03-11T19:17:01.130Z,16
2019-03-11T19:19:01.086Z,17
2019-03-11T19:20:01.104Z,15
2019-03-11T19:21:01.096Z,13
2019-03-11T19:22:01.126Z,14
2019-03-11T19:23:01.072Z,15
2019-03-11T19:25:01.120Z,17
2019-03-11T19:26:01.116Z,18
2019-03-11T19:29:01.121Z,16
2019-03-11T19:30:01.096Z,17
2019-03-11T19:31:01.110Z,18
2019-03-11T19:33:02.138Z,17
2019-03-11T19:34:01.126Z,18
2019-03-11T19:36:01.104Z,17
2019-03-11T19:37:01.142Z,18
2019-03-11T19:38:01.067Z,19
2019-03-11T19:39:01.119Z,20
2019-03-11T19:40:01.123Z,18
2019-03-11T19:41:01.082Z,17
2019-03-11T19:42:01.185Z,16
2019-03-11T19:43:01.082Z,15
2019-03-11T19:44:01.105Z,14
2019-03-11T19:45:01.197Z,14
2019-03-11T19:48:01.073Z,13
2019-03-11T19:49:01.081Z,14
2019-03-11T19:50:01.139Z,16
2019-03-11T19:51:01.107Z,18
2019-03-11T19:52:01.149Z,19
2019-03-11T19:53:01.174Z,22
2019-03-11T19:54:01.047Z,19